Monday, December 22, 2014, 1:23 PM EST
Back to Local

KLEB, Lebanon Municipal Airport

Location: Lebanon, NH, United States Lat: 43.633
Local Time: 1:23 PM EST (18:23 GMT) Lon: -72.3
Time Zone: US/Eastern Elev: 597 ft

Show me the last for .
Show Coded

Time T Td Feel RH Dir Speed Gust Alt SLP Vis Weather Sky Remarks
2014-12-22 12:53 33 26 - 75 - Calm - 30.33 30.36 9 OVC038 6-hr Min Temp (1pm): 27.0°F
6-hr Max Temp (1pm): 33.1°F
2014-12-22 11:53 33 26 - 75 - Calm - 30.34 30.36 9 OVC038 None
2014-12-22 10:53 31 26 - 81 - Calm - 30.36 30.39 8 SCT029 OVC037 None
2014-12-22 09:53 30 25 - 81 - Calm - 30.38 30.41 9 OVC037 None
2014-12-22 08:53 29 25 - 84 - Calm - 30.37 30.40 8 OVC036 None
2014-12-22 07:53 28 24 - 84 - Calm - 30.37 30.40 6 BR OVC036 None
2014-12-22 06:53 28 24 - 84 - Calm - 30.37 30.40 8 FEW020 OVC037 24-hr Precip Total (7am): 0.02"
6-hr Min Temp (7am): 28.0°F
6-hr Max Temp (7am): 28.9°F
2014-12-22 05:53 28 25 - 86 - Calm - 30.36 - 8 OVC036 None
2014-12-22 04:53 28 24 - 84 - Calm - 30.36 30.39 8 OVC034 None
2014-12-22 03:53 28 24 - 84 - Calm - 30.35 30.38 9 OVC036 None
2014-12-22 02:53 28 24 - 84 - Calm - 30.36 30.39 8 OVC037 None
2014-12-22 01:53 28 25 - 88 - Calm - 30.36 30.39 7 SCT021 OVC036 None
2014-12-22 01:48 28 25 - 86 - Calm - 30.36 - 7 SCT021 OVC037 None
2014-12-22 00:53 29 25 - 84 - Calm - 30.35 30.38 6 BR OVC024 6-hr Min Temp (1am): 27.0°F
6-hr Max Temp (1am): 28.9°F
2014-12-21 23:53 28 25 - 88 - Calm - 30.35 30.38 7 SCT011 OVC025 24-hr Min Temp (12am): 24.1°F
24-hr Max Temp (12am): 30.0°F
2014-12-21 23:49 28 25 - 86 - Calm - 30.35 - 7 SCT011 OVC025 None
2014-12-21 23:36 28 25 - 88 - Calm - 30.36 - 8 BKN011 OVC027 None
2014-12-21 22:53 28 25 - 88 - Calm - 30.35 30.39 8 OVC027 None
2014-12-21 22:15 27 25 - 92 - Calm - 30.35 - 8 OVC028 None
2014-12-21 21:53 27 25 - 92 - Calm - 30.35 30.38 8 BKN032 OVC046 None
2014-12-21 20:53 28 25 - 88 - Calm - 30.34 30.37 8 BKN036 OVC044 None
2014-12-21 19:53 28 25 24 88 170° 3 - 30.33 30.37 8 OVC033 None
2014-12-21 18:53 28 25 - 88 - Calm - 30.33 30.37 9 OVC038 6-hr Precip Total (7pm): 0.00"
6-hr Min Temp (7pm): 27.0°F
6-hr Max Temp (7pm): 30.0°F
2014-12-21 17:53 29 26 - 88 - Calm - 30.32 30.35 9 OVC036 None
2014-12-21 16:53 29 24 - 81 - Calm - 30.31 30.34 10 OVC040 None
2014-12-21 15:53 29 24 - 81 - Calm - 30.30 30.33 9 OVC040 6-hr Precip Total (4pm): 0.00"
2014-12-21 14:53 29 24 - 81 - Calm - 30.30 30.33 8 BKN044 BKN055 OVC110 None
2014-12-21 13:53 28 25 - 88 - Calm - 30.29 30.33 7 OVC043 1-hr Precip Total: Trace

Support USWX by starting your Amazon purchase here.